Impacts TAF Board
For situational awareness. Not to be used for flight planning purposes.
IDs:

KIAH - Houston/Bush Intl, TX, US

Issued at 1135 UTC 14 Dec 2019
Updated at 1335 UTC 14 Dec 2019
Potential Impact None Slight Moderate High
Time1253Z 14/14Z 14/15Z 14/16Z 14/17Z 14/18Z 14/19Z 14/20Z 14/21Z 14/22Z 14/23Z 15/00Z 15/01Z 15/02Z>>
Type OBS PRVL PRVL PRVL PRVL PRVL PRVL PRVL PRVL PRVL PRVL PRVL PRVL PRVL
VIS 10 >6 >6 >6 >6 >6 >6 >6 >6 >6 >6 >6 >6 >6
CIG -- -- -- -- -- -- -- -- -- -- -- -- -- --
Cover CLR SKC SKC SKC SKC SKC SKC SKC SKC SKC SKC SKC SKC SKC
FltCat VFR VFR VFR VFR VFR VFR VFR VFR VFR VFR VFR VFR VFR VFR
WX -- -- -- -- -- -- -- -- -- -- -- -- -- --
WDir 10 VRB VRB VRB VRB 150 150 150 150 150 150 150 150 150
WSpd 3 0 0 0 0 7 7 7 7 7 7 7 7 7
WGst -- -- -- -- -- -- -- -- -- -- -- -- -- --
Raw TAF
KIAH 141135Z 1412/1518 00000KT P6SM SKC
  FM141800 15007KT P6SM SKC
  FM150300 16004KT P6SM SCT250
  FM150800 14004KT P6SM MIFG SCT008 BKN025
  FM151500 18008KT P6SM BKN015


Raw METAR
KIAH 141253Z 01003KT 10SM CLR 07/06 A2989 RMK AO2 SLP122 T00720056
KIAH 141153Z 36003KT 10SM CLR 08/06 A2987 RMK AO2 SLP114 T00780061 10111 20061 53001
KIAH 141053Z 00000KT 10SM CLR 08/07 A2986 RMK AO2 SLP111 T00780067

METAR Board
Radar Display
Forecast Discussion
For situational awareness. Not to be used for flight planning purposes.